sensor_id;sensor_type;location;lat;lon;timestamp;temperature;humidity
53272;DHT22;39160;48.580;7.756;2023-02-28T00:03:56;1.70;90.50
53272;DHT22;39160;48.580;7.756;2023-02-28T00:08:47;1.80;90.50
53272;DHT22;39160;48.580;7.756;2023-02-28T00:13:40;1.70;90.70
53272;DHT22;39160;48.580;7.756;2023-02-28T00:18:31;1.60;90.90
53272;DHT22;39160;48.580;7.756;2023-02-28T00:23:22;1.60;91.00
53272;DHT22;39160;48.580;7.756;2023-02-28T00:28:13;1.60;91.30
53272;DHT22;39160;48.580;7.756;2023-02-28T00:33:03;1.60;91.60
53272;DHT22;39160;48.580;7.756;2023-02-28T00:37:54;1.50;91.70
53272;DHT22;39160;48.580;7.756;2023-02-28T00:42:45;1.50;91.90
53272;DHT22;39160;48.580;7.756;2023-02-28T00:47:35;1.50;92.00
53272;DHT22;39160;48.580;7.756;2023-02-28T00:52:26;1.50;92.00
53272;DHT22;39160;48.580;7.756;2023-02-28T00:57:17;1.40;92.40
53272;DHT22;39160;48.580;7.756;2023-02-28T01:02:08;1.40;92.50
53272;DHT22;39160;48.580;7.756;2023-02-28T01:06:58;1.30;92.70
53272;DHT22;39160;48.580;7.756;2023-02-28T01:11:49;1.30;92.90
53272;DHT22;39160;48.580;7.756;2023-02-28T01:16:40;1.30;93.00
53272;DHT22;39160;48.580;7.756;2023-02-28T01:21:31;1.30;93.10
53272;DHT22;39160;48.580;7.756;2023-02-28T01:26:22;1.30;93.30
53272;DHT22;39160;48.580;7.756;2023-02-28T01:31:13;1.30;93.30
53272;DHT22;39160;48.580;7.756;2023-02-28T01:41:03;1.30;93.90
53272;DHT22;39160;48.580;7.756;2023-02-28T01:45:55;1.30;94.10
53272;DHT22;39160;48.580;7.756;2023-02-28T01:50:46;1.20;94.30
53272;DHT22;39160;48.580;7.756;2023-02-28T01:55:39;1.20;94.40
53272;DHT22;39160;48.580;7.756;2023-02-28T02:00:31;1.30;94.60
53272;DHT22;39160;48.580;7.756;2023-02-28T02:05:27;1.30;94.70
53272;DHT22;39160;48.580;7.756;2023-02-28T02:10:21;1.30;94.90
53272;DHT22;39160;48.580;7.756;2023-02-28T02:15:25;1.30;95.10
53272;DHT22;39160;48.580;7.756;2023-02-28T02:20:55;1.30;95.20
53272;DHT22;39160;48.580;7.756;2023-02-28T02:26:26;1.40;95.30
53272;DHT22;39160;48.580;7.756;2023-02-28T02:37:13;1.30;95.30
53272;DHT22;39160;48.580;7.756;2023-02-28T02:42:14;1.30;95.50
53272;DHT22;39160;48.580;7.756;2023-02-28T02:47:10;1.30;95.60
53272;DHT22;39160;48.580;7.756;2023-02-28T02:52:11;1.20;95.60
53272;DHT22;39160;48.580;7.756;2023-02-28T02:57:09;1.20;95.70
53272;DHT22;39160;48.580;7.756;2023-02-28T03:02:04;1.20;95.80
53272;DHT22;39160;48.580;7.756;2023-02-28T03:06:56;1.10;96.00
53272;DHT22;39160;48.580;7.756;2023-02-28T03:11:47;1.10;95.90
53272;DHT22;39160;48.580;7.756;2023-02-28T03:16:49;1.10;96.10
53272;DHT22;39160;48.580;7.756;2023-02-28T03:26:45;1.10;96.20
53272;DHT22;39160;48.580;7.756;2023-02-28T03:37:10;0.90;96.50
53272;DHT22;39160;48.580;7.756;2023-02-28T03:42:06;0.90;96.50
53272;DHT22;39160;48.580;7.756;2023-02-28T03:47:02;0.80;96.80
53272;DHT22;39160;48.580;7.756;2023-02-28T03:51:54;0.90;96.80
53272;DHT22;39160;48.580;7.756;2023-02-28T03:57:00;0.80;97.00
53272;DHT22;39160;48.580;7.756;2023-02-28T04:01:53;0.80;97.00
53272;DHT22;39160;48.580;7.756;2023-02-28T04:06:45;0.80;97.20
53272;DHT22;39160;48.580;7.756;2023-02-28T04:16:29;0.70;97.60
53272;DHT22;39160;48.580;7.756;2023-02-28T04:21:19;0.60;97.70
53272;DHT22;39160;48.580;7.756;2023-02-28T04:26:13;0.60;97.70
53272;DHT22;39160;48.580;7.756;2023-02-28T04:31:04;0.60;98.00
53272;DHT22;39160;48.580;7.756;2023-02-28T04:36:03;0.50;98.20
53272;DHT22;39160;48.580;7.756;2023-02-28T04:40:57;0.50;98.30
53272;DHT22;39160;48.580;7.756;2023-02-28T04:45:47;0.50;98.40
53272;DHT22;39160;48.580;7.756;2023-02-28T04:50:38;0.40;98.50
53272;DHT22;39160;48.580;7.756;2023-02-28T04:55:29;0.50;98.70
53272;DHT22;39160;48.580;7.756;2023-02-28T05:00:20;0.40;98.90
53272;DHT22;39160;48.580;7.756;2023-02-28T05:05:11;0.40;98.80
53272;DHT22;39160;48.580;7.756;2023-02-28T05:10:06;0.40;98.90
53272;DHT22;39160;48.580;7.756;2023-02-28T05:14:57;0.40;99.10
53272;DHT22;39160;48.580;7.756;2023-02-28T05:19:48;0.40;99.20
53272;DHT22;39160;48.580;7.756;2023-02-28T05:24:39;0.40;99.20
53272;DHT22;39160;48.580;7.756;2023-02-28T05:29:29;0.30;99.40
53272;DHT22;39160;48.580;7.756;2023-02-28T05:34:20;0.30;99.50
53272;DHT22;39160;48.580;7.756;2023-02-28T05:39:11;0.30;99.60
53272;DHT22;39160;48.580;7.756;2023-02-28T05:44:03;0.20;99.90
53272;DHT22;39160;48.580;7.756;2023-02-28T05:48:53;0.30;99.90
53272;DHT22;39160;48.580;7.756;2023-02-28T05:53:46;0.30;99.90
53272;DHT22;39160;48.580;7.756;2023-02-28T05:58:38;0.30;99.90
53272;DHT22;39160;48.580;7.756;2023-02-28T06:03:29;0.30;99.90
53272;DHT22;39160;48.580;7.756;2023-02-28T06:08:20;0.30;99.90
53272;DHT22;39160;48.580;7.756;2023-02-28T06:13:11;0.40;99.90
53272;DHT22;39160;48.580;7.756;2023-02-28T06:18:03;0.40;99.90
53272;DHT22;39160;48.580;7.756;2023-02-28T06:22:54;0.50;99.90
53272;DHT22;39160;48.580;7.756;2023-02-28T06:27:46;0.50;99.90
53272;DHT22;39160;48.580;7.756;2023-02-28T06:32:37;0.50;99.90
53272;DHT22;39160;48.580;7.756;2023-02-28T06:37:28;0.60;99.90
53272;DHT22;39160;48.580;7.756;2023-02-28T06:42:18;0.60;99.90
53272;DHT22;39160;48.580;7.756;2023-02-28T06:47:10;0.60;99.90
53272;DHT22;39160;48.580;7.756;2023-02-28T06:52:01;0.50;99.90
53272;DHT22;39160;48.580;7.756;2023-02-28T06:56:52;0.50;99.90
53272;DHT22;39160;48.580;7.756;2023-02-28T07:01:47;0.50;99.90
53272;DHT22;39160;48.580;7.756;2023-02-28T07:06:38;0.60;99.90
53272;DHT22;39160;48.580;7.756;2023-02-28T07:11:29;0.70;99.90
53272;DHT22;39160;48.580;7.756;2023-02-28T07:16:20;0.60;99.90
53272;DHT22;39160;48.580;7.756;2023-02-28T07:21:11;0.70;99.90
53272;DHT22;39160;48.580;7.756;2023-02-28T07:26:02;0.80;99.90
53272;DHT22;39160;48.580;7.756;2023-02-28T07:30:53;0.80;99.90
53272;DHT22;39160;48.580;7.756;2023-02-28T07:35:43;1.00;99.90
53272;DHT22;39160;48.580;7.756;2023-02-28T07:40:36;1.00;99.90
53272;DHT22;39160;48.580;7.756;2023-02-28T07:45:28;1.10;99.90
53272;DHT22;39160;48.580;7.756;2023-02-28T07:50:19;1.10;99.90
53272;DHT22;39160;48.580;7.756;2023-02-28T07:55:10;1.20;99.90
53272;DHT22;39160;48.580;7.756;2023-02-28T08:00:04;1.20;99.90
53272;DHT22;39160;48.580;7.756;2023-02-28T08:04:55;1.30;99.90
53272;DHT22;39160;48.580;7.756;2023-02-28T08:09:46;1.40;99.90
53272;DHT22;39160;48.580;7.756;2023-02-28T08:14:38;1.40;99.90
53272;DHT22;39160;48.580;7.756;2023-02-28T08:19:30;1.50;99.90
53272;DHT22;39160;48.580;7.756;2023-02-28T08:24:20;1.60;99.90
53272;DHT22;39160;48.580;7.756;2023-02-28T08:29:11;1.70;99.90
53272;DHT22;39160;48.580;7.756;2023-02-28T08:34:06;1.60;99.90
53272;DHT22;39160;48.580;7.756;2023-02-28T08:38:57;1.60;99.90
53272;DHT22;39160;48.580;7.756;2023-02-28T08:43:49;1.60;99.90
53272;DHT22;39160;48.580;7.756;2023-02-28T08:48:40;1.80;99.90
53272;DHT22;39160;48.580;7.756;2023-02-28T08:53:32;1.80;99.90
53272;DHT22;39160;48.580;7.756;2023-02-28T08:58:23;1.80;99.90
53272;DHT22;39160;48.580;7.756;2023-02-28T09:03:13;1.90;99.90
53272;DHT22;39160;48.580;7.756;2023-02-28T09:08:04;1.90;99.90
53272;DHT22;39160;48.580;7.756;2023-02-28T09:12:55;1.90;99.90
53272;DHT22;39160;48.580;7.756;2023-02-28T09:17:45;1.90;99.90
53272;DHT22;39160;48.580;7.756;2023-02-28T09:22:36;1.90;99.90
53272;DHT22;39160;48.580;7.756;2023-02-28T09:27:27;1.90;99.90
53272;DHT22;39160;48.580;7.756;2023-02-28T09:32:18;2.00;99.90
53272;DHT22;39160;48.580;7.756;2023-02-28T09:37:08;2.10;99.90
53272;DHT22;39160;48.580;7.756;2023-02-28T09:41:59;2.10;99.90
53272;DHT22;39160;48.580;7.756;2023-02-28T09:46:55;2.10;99.90
53272;DHT22;39160;48.580;7.756;2023-02-28T09:51:57;2.10;99.90
53272;DHT22;39160;48.580;7.756;2023-02-28T09:56:53;2.20;99.90
53272;DHT22;39160;48.580;7.756;2023-02-28T10:06:41;2.10;99.90
53272;DHT22;39160;48.580;7.756;2023-02-28T10:11:36;2.20;99.90
53272;DHT22;39160;48.580;7.756;2023-02-28T10:16:52;2.20;99.90
53272;DHT22;39160;48.580;7.756;2023-02-28T10:21:49;2.40;99.90
53272;DHT22;39160;48.580;7.756;2023-02-28T10:26:47;2.50;99.90
53272;DHT22;39160;48.580;7.756;2023-02-28T10:31:39;2.40;99.90
53272;DHT22;39160;48.580;7.756;2023-02-28T10:36:30;2.50;99.90
53272;DHT22;39160;48.580;7.756;2023-02-28T10:41:30;2.60;99.90
53272;DHT22;39160;48.580;7.756;2023-02-28T10:46:33;2.50;99.90
53272;DHT22;39160;48.580;7.756;2023-02-28T10:51:24;2.50;99.80
53272;DHT22;39160;48.580;7.756;2023-02-28T10:56:18;2.50;99.70
53272;DHT22;39160;48.580;7.756;2023-02-28T11:01:14;2.60;99.80
53272;DHT22;39160;48.580;7.756;2023-02-28T11:06:10;2.80;99.60
53272;DHT22;39160;48.580;7.756;2023-02-28T11:11:06;2.80;99.60
53272;DHT22;39160;48.580;7.756;2023-02-28T11:15:59;2.90;99.60
53272;DHT22;39160;48.580;7.756;2023-02-28T11:20:52;3.00;99.60
53272;DHT22;39160;48.580;7.756;2023-02-28T11:25:48;3.00;99.40
53272;DHT22;39160;48.580;7.756;2023-02-28T11:30:41;3.00;99.40
53272;DHT22;39160;48.580;7.756;2023-02-28T11:35:37;3.10;99.40
53272;DHT22;39160;48.580;7.756;2023-02-28T11:40:35;3.30;99.40
53272;DHT22;39160;48.580;7.756;2023-02-28T11:51:17;3.40;99.20
53272;DHT22;39160;48.580;7.756;2023-02-28T12:07:20;3.90;99.00
53272;DHT22;39160;48.580;7.756;2023-02-28T12:12:41;4.00;98.90
53272;DHT22;39160;48.580;7.756;2023-02-28T12:27:40;4.30;98.40
53272;DHT22;39160;48.580;7.756;2023-02-28T12:32:41;4.10;98.40
53272;DHT22;39160;48.580;7.756;2023-02-28T12:37:49;4.20;98.30
53272;DHT22;39160;48.580;7.756;2023-02-28T12:42:55;4.20;97.90
53272;DHT22;39160;48.580;7.756;2023-02-28T12:47:52;4.10;97.80
53272;DHT22;39160;48.580;7.756;2023-02-28T13:13:03;4.50;97.30
53272;DHT22;39160;48.580;7.756;2023-02-28T13:17:56;4.80;97.20
53272;DHT22;39160;48.580;7.756;2023-02-28T13:22:51;4.80;96.90
53272;DHT22;39160;48.580;7.756;2023-02-28T13:27:43;4.90;97.00
53272;DHT22;39160;48.580;7.756;2023-02-28T13:32:35;4.90;96.70
53272;DHT22;39160;48.580;7.756;2023-02-28T13:47:23;5.60;96.50
53272;DHT22;39160;48.580;7.756;2023-02-28T13:52:21;5.40;96.50
53272;DHT22;39160;48.580;7.756;2023-02-28T14:07:50;7.50;97.30
53272;DHT22;39160;48.580;7.756;2023-02-28T14:13:01;8.00;96.90
53272;DHT22;39160;48.580;7.756;2023-02-28T14:17:56;7.70;96.80
53272;DHT22;39160;48.580;7.756;2023-02-28T14:33:27;8.90;95.90
53272;DHT22;39160;48.580;7.756;2023-02-28T14:38:27;10.40;94.90
53272;DHT22;39160;48.580;7.756;2023-02-28T14:43:24;10.80;94.10
53272;DHT22;39160;48.580;7.756;2023-02-28T14:48:15;11.90;93.20
53272;DHT22;39160;48.580;7.756;2023-02-28T14:53:15;13.60;91.90
53272;DHT22;39160;48.580;7.756;2023-02-28T14:58:26;14.40;91.10
53272;DHT22;39160;48.580;7.756;2023-02-28T15:03:36;15.00;90.00
53272;DHT22;39160;48.580;7.756;2023-02-28T15:08:29;15.50;88.20
53272;DHT22;39160;48.580;7.756;2023-02-28T15:13:23;14.90;87.00
53272;DHT22;39160;48.580;7.756;2023-02-28T15:23:11;16.50;83.30
53272;DHT22;39160;48.580;7.756;2023-02-28T15:28:02;14.30;82.80
53272;DHT22;39160;48.580;7.756;2023-02-28T15:43:37;16.00;77.60
53272;DHT22;39160;48.580;7.756;2023-02-28T15:48:30;15.20;76.30
53272;DHT22;39160;48.580;7.756;2023-02-28T15:53:30;15.50;76.10
53272;DHT22;39160;48.580;7.756;2023-02-28T15:58:21;15.00;74.90
53272;DHT22;39160;48.580;7.756;2023-02-28T16:03:26;14.70;74.10
53272;DHT22;39160;48.580;7.756;2023-02-28T16:08:17;13.60;73.50
53272;DHT22;39160;48.580;7.756;2023-02-28T16:13:11;12.90;74.70
53272;DHT22;39160;48.580;7.756;2023-02-28T16:18:04;13.30;73.40
53272;DHT22;39160;48.580;7.756;2023-02-28T16:22:55;13.10;73.10
53272;DHT22;39160;48.580;7.756;2023-02-28T16:27:49;12.50;73.40
53272;DHT22;39160;48.580;7.756;2023-02-28T16:32:40;9.70;75.40
53272;DHT22;39160;48.580;7.756;2023-02-28T16:37:31;7.80;77.60
53272;DHT22;39160;48.580;7.756;2023-02-28T16:42:25;7.10;78.60
53272;DHT22;39160;48.580;7.756;2023-02-28T16:47:16;6.70;78.90
53272;DHT22;39160;48.580;7.756;2023-02-28T16:52:06;6.50;79.20
53272;DHT22;39160;48.580;7.756;2023-02-28T16:56:57;6.30;79.80
53272;DHT22;39160;48.580;7.756;2023-02-28T17:01:48;6.10;80.90
53272;DHT22;39160;48.580;7.756;2023-02-28T17:06:39;5.90;81.20
53272;DHT22;39160;48.580;7.756;2023-02-28T17:11:31;5.90;82.00
53272;DHT22;39160;48.580;7.756;2023-02-28T17:16:31;5.70;82.60
53272;DHT22;39160;48.580;7.756;2023-02-28T17:21:22;5.60;83.00
53272;DHT22;39160;48.580;7.756;2023-02-28T17:26:15;5.50;83.40
53272;DHT22;39160;48.580;7.756;2023-02-28T17:31:08;5.40;83.80
53272;DHT22;39160;48.580;7.756;2023-02-28T17:35:58;5.40;84.00
53272;DHT22;39160;48.580;7.756;2023-02-28T17:40:49;5.30;84.30
53272;DHT22;39160;48.580;7.756;2023-02-28T17:45:40;5.30;84.70
53272;DHT22;39160;48.580;7.756;2023-02-28T17:50:32;5.10;85.40
53272;DHT22;39160;48.580;7.756;2023-02-28T17:55:23;5.10;85.60
53272;DHT22;39160;48.580;7.756;2023-02-28T18:00:15;5.10;86.30
53272;DHT22;39160;48.580;7.756;2023-02-28T18:05:08;5.00;86.60
53272;DHT22;39160;48.580;7.756;2023-02-28T18:10:00;4.90;87.20
53272;DHT22;39160;48.580;7.756;2023-02-28T18:14:51;4.90;87.50
53272;DHT22;39160;48.580;7.756;2023-02-28T18:19:42;4.80;88.10
53272;DHT22;39160;48.580;7.756;2023-02-28T18:24:32;4.80;88.40
53272;DHT22;39160;48.580;7.756;2023-02-28T18:29:25;4.80;88.60
53272;DHT22;39160;48.580;7.756;2023-02-28T18:34:16;4.70;88.90
53272;DHT22;39160;48.580;7.756;2023-02-28T18:39:08;4.70;89.10
53272;DHT22;39160;48.580;7.756;2023-02-28T18:44:01;4.60;89.50
53272;DHT22;39160;48.580;7.756;2023-02-28T18:48:52;4.50;90.00
53272;DHT22;39160;48.580;7.756;2023-02-28T18:53:43;4.50;90.00
53272;DHT22;39160;48.580;7.756;2023-02-28T18:58:34;4.50;90.20
53272;DHT22;39160;48.580;7.756;2023-02-28T19:03:25;4.40;90.40
53272;DHT22;39160;48.580;7.756;2023-02-28T19:08:16;4.40;90.80
53272;DHT22;39160;48.580;7.756;2023-02-28T19:13:10;4.30;90.60
53272;DHT22;39160;48.580;7.756;2023-02-28T19:18:01;4.20;90.70
53272;DHT22;39160;48.580;7.756;2023-02-28T19:22:52;4.10;91.00
53272;DHT22;39160;48.580;7.756;2023-02-28T19:27:42;4.10;91.00
53272;DHT22;39160;48.580;7.756;2023-02-28T19:32:33;4.10;91.30
53272;DHT22;39160;48.580;7.756;2023-02-28T19:37:24;4.00;91.10
53272;DHT22;39160;48.580;7.756;2023-02-28T19:42:16;3.90;91.20
53272;DHT22;39160;48.580;7.756;2023-02-28T19:47:07;3.90;91.30
53272;DHT22;39160;48.580;7.756;2023-02-28T19:51:58;3.90;91.50
53272;DHT22;39160;48.580;7.756;2023-02-28T19:56:49;3.80;91.60
53272;DHT22;39160;48.580;7.756;2023-02-28T20:01:40;3.80;91.70
53272;DHT22;39160;48.580;7.756;2023-02-28T20:06:31;3.70;91.80
53272;DHT22;39160;48.580;7.756;2023-02-28T20:11:23;3.80;91.80
53272;DHT22;39160;48.580;7.756;2023-02-28T20:16:14;3.70;91.90
53272;DHT22;39160;48.580;7.756;2023-02-28T20:21:08;3.70;91.90
53272;DHT22;39160;48.580;7.756;2023-02-28T20:25:59;3.60;91.90
53272;DHT22;39160;48.580;7.756;2023-02-28T20:30:50;3.60;92.10
53272;DHT22;39160;48.580;7.756;2023-02-28T20:35:41;3.60;92.10
53272;DHT22;39160;48.580;7.756;2023-02-28T20:40:32;3.50;92.20
53272;DHT22;39160;48.580;7.756;2023-02-28T20:45:23;3.50;92.30
53272;DHT22;39160;48.580;7.756;2023-02-28T20:50:14;3.40;92.40
53272;DHT22;39160;48.580;7.756;2023-02-28T20:55:06;3.40;92.30
53272;DHT22;39160;48.580;7.756;2023-02-28T20:59:58;3.40;92.40
53272;DHT22;39160;48.580;7.756;2023-02-28T21:04:48;3.40;92.40
53272;DHT22;39160;48.580;7.756;2023-02-28T21:09:39;3.30;92.50
53272;DHT22;39160;48.580;7.756;2023-02-28T21:14:30;3.30;92.50
53272;DHT22;39160;48.580;7.756;2023-02-28T21:19:21;3.30;92.60
53272;DHT22;39160;48.580;7.756;2023-02-28T21:24:15;3.20;92.80
53272;DHT22;39160;48.580;7.756;2023-02-28T21:29:06;3.20;92.90
53272;DHT22;39160;48.580;7.756;2023-02-28T21:33:58;3.10;92.90
53272;DHT22;39160;48.580;7.756;2023-02-28T21:38:55;3.10;93.00
53272;DHT22;39160;48.580;7.756;2023-02-28T21:43:47;3.10;92.90
53272;DHT22;39160;48.580;7.756;2023-02-28T21:48:38;3.10;93.00
53272;DHT22;39160;48.580;7.756;2023-02-28T21:53:34;3.00;93.30
53272;DHT22;39160;48.580;7.756;2023-02-28T21:58:24;3.10;93.10
53272;DHT22;39160;48.580;7.756;2023-02-28T22:03:16;3.00;93.20
53272;DHT22;39160;48.580;7.756;2023-02-28T22:08:06;2.90;93.20
53272;DHT22;39160;48.580;7.756;2023-02-28T22:12:57;2.90;93.40
53272;DHT22;39160;48.580;7.756;2023-02-28T22:17:51;2.90;93.80
53272;DHT22;39160;48.580;7.756;2023-02-28T22:22:41;2.90;93.50
53272;DHT22;39160;48.580;7.756;2023-02-28T22:27:33;2.80;93.60
53272;DHT22;39160;48.580;7.756;2023-02-28T22:32:23;2.80;93.70
53272;DHT22;39160;48.580;7.756;2023-02-28T22:37:14;2.70;93.70
53272;DHT22;39160;48.580;7.756;2023-02-28T22:42:05;2.70;93.70
53272;DHT22;39160;48.580;7.756;2023-02-28T22:46:55;2.70;93.80
53272;DHT22;39160;48.580;7.756;2023-02-28T22:51:46;2.70;94.00
53272;DHT22;39160;48.580;7.756;2023-02-28T22:56:37;2.60;94.10
53272;DHT22;39160;48.580;7.756;2023-02-28T23:01:29;2.50;94.20
53272;DHT22;39160;48.580;7.756;2023-02-28T23:06:23;2.50;94.30
53272;DHT22;39160;48.580;7.756;2023-02-28T23:11:20;2.50;94.60
53272;DHT22;39160;48.580;7.756;2023-02-28T23:16:11;2.50;94.50
53272;DHT22;39160;48.580;7.756;2023-02-28T23:21:02;2.50;94.40
53272;DHT22;39160;48.580;7.756;2023-02-28T23:25:53;2.40;94.60
53272;DHT22;39160;48.580;7.756;2023-02-28T23:30:43;2.40;94.70
53272;DHT22;39160;48.580;7.756;2023-02-28T23:35:34;2.40;94.80
53272;DHT22;39160;48.580;7.756;2023-02-28T23:40:25;2.40;94.80
53272;DHT22;39160;48.580;7.756;2023-02-28T23:45:17;2.40;94.80
53272;DHT22;39160;48.580;7.756;2023-02-28T23:50:08;2.30;94.90
53272;DHT22;39160;48.580;7.756;2023-02-28T23:54:59;2.30;94.90
53272;DHT22;39160;48.580;7.756;2023-02-28T23:59:50;2.30;95.00
